Time;durP1;ratioP1;P1;durP2;ratioP2;P2;SDS_P1;SDS_P2;PMS_P1;PMS_P2;Temp;Humidity;BMP_temperature;BMP_pressure;BME280_temperature;BME280_humidity;BME280_pressure;Samples;Min_cycle;Max_cycle;Signal;HPM_P1;HPM_P2
2023/05/06 00:01:52;;;;;;;1.70;1.30;;;;;;;;;;5035076;28;21014;-84
2023/05/06 00:04:18;;;;;;;3.70;1.57;;;8.60;99.90;;;;;;5053329;28;20574;-84
2023/05/06 00:06:44;;;;;;;1.80;1.57;;;;;;;;;;5052830;28;20236;-84
2023/05/06 00:09:10;;;;;;;1.83;1.60;;;8.30;99.90;;;;;;5053161;28;20540;-84
2023/05/06 00:11:35;;;;;;;3.77;1.97;;;8.40;99.90;;;;;;5052627;28;20180;-84
2023/05/06 00:14:01;;;;;;;2.70;1.60;;;8.80;99.90;;;;;;5051862;28;20191;-84
2023/05/06 00:16:27;;;;;;;4.23;1.47;;;;;;;;;;5051149;28;20752;-84
2023/05/06 00:18:53;;;;;;;2.93;1.73;;;8.40;99.90;;;;;;5052959;28;20184;-84
2023/05/06 00:21:19;;;;;;;3.37;1.63;;;;;;;;;;5051805;28;20194;-84
2023/05/06 00:23:44;;;;;;;3.00;1.80;;;8.30;99.90;;;;;;5051392;28;20187;-84
2023/05/06 00:26:10;;;;;;;1.67;1.57;;;8.10;99.90;;;;;;5051700;28;20183;-84
2023/05/06 00:28:35;;;;;;;1.73;1.60;;;8.10;99.90;;;;;;5035097;28;20184;-85
2023/05/06 00:31:01;;;;;;;1.80;1.33;;;8.40;99.90;;;;;;5052655;28;20184;-84
2023/05/06 00:33:27;;;;;;;3.30;1.63;;;8.20;99.90;;;;;;5052881;28;20565;-84
2023/05/06 00:35:53;;;;;;;1.60;1.30;;;;;;;;;;5052430;28;20257;-84
2023/05/06 00:38:18;;;;;;;3.17;1.60;;;8.10;99.90;;;;;;5052811;28;20172;-84
2023/05/06 00:40:45;;;;;;;3.13;2.10;;;;;;;;;;5051264;28;20656;-84
2023/05/06 00:43:10;;;;;;;1.30;1.17;;;8.30;99.90;;;;;;5052881;28;20179;-84
2023/05/06 00:45:37;;;;;;;3.63;1.27;;;8.40;99.90;;;;;;5051520;28;20180;-84
2023/05/06 00:48:04;;;;;;;6.07;2.27;;;8.40;99.90;;;;;;5051246;28;20180;-85
2023/05/06 00:50:32;;;;;;;1.30;1.20;;;8.30;99.90;;;;;;5051838;28;20270;-85
2023/05/06 00:52:58;;;;;;;1.67;1.20;;;8.30;99.90;;;;;;5051152;28;20172;-84
2023/05/06 00:55:25;;;;;;;1.63;1.30;;;8.30;99.90;;;;;;5051381;28;20212;-84
2023/05/06 00:57:51;;;;;;;4.27;1.37;;;8.40;99.90;;;;;;5052382;28;20289;-84
2023/05/06 01:00:19;;;;;;;1.23;1.17;;;8.30;99.90;;;;;;5052750;28;20175;-85
2023/05/06 01:02:45;;;;;;;2.20;1.37;;;8.30;99.90;;;;;;5051138;28;20195;-85
2023/05/06 01:05:11;;;;;;;4.70;1.70;;;8.30;99.90;;;;;;5052540;28;20184;-84
2023/05/06 01:08:03;;;;;;;1.30;1.20;;;8.20;99.90;;;;;;5052540;28;20275;-84
2023/05/06 01:10:43;;;;;;;1.93;1.50;;;8.20;99.90;;;;;;5052651;28;20636;-84
2023/05/06 01:13:32;;;;;;;5.23;1.83;;;8.10;99.90;;;;;;5052562;28;20218;-84
2023/05/06 01:15:59;;;;;;;2.63;1.80;;;7.90;99.90;;;;;;5051603;28;20228;-84
2023/05/06 01:18:27;;;;;;;5.47;1.90;;;8.20;99.90;;;;;;5052513;28;20180;-84
2023/05/06 01:20:55;;;;;;;5.47;1.43;;;8.10;99.90;;;;;;5051967;28;20577;-84
2023/05/06 01:23:21;;;;;;;1.73;1.37;;;8.40;99.90;;;;;;5054094;28;20632;-84
2023/05/06 01:25:47;;;;;;;1.57;1.40;;;;;;;;;;5037914;28;20194;-84
2023/05/06 01:28:13;;;;;;;4.63;1.67;;;8.10;99.90;;;;;;5056078;28;20179;-84
2023/05/06 01:30:50;;;;;;;2.07;1.57;;;7.90;99.90;;;;;;5056021;28;20344;-84
2023/05/06 01:33:35;;;;;;;1.30;1.20;;;8.30;99.90;;;;;;5054753;28;20186;-84
2023/05/06 01:36:25;;;;;;;1.57;1.40;;;7.90;99.90;;;;;;5055725;28;20196;-84
2023/05/06 01:39:01;;;;;;;1.90;1.40;;;8.00;99.90;;;;;;5055755;28;20157;-84
2023/05/06 01:41:30;;;;;;;1.50;1.00;;;8.10;99.90;;;;;;5054722;28;20180;-84
2023/05/06 01:43:58;;;;;;;1.73;1.40;;;8.00;99.90;;;;;;5055557;28;20199;-84
2023/05/06 01:46:24;;;;;;;1.93;1.40;;;8.30;99.90;;;;;;5054538;28;20302;-84
2023/05/06 01:48:54;;;;;;;2.20;1.27;;;8.00;99.90;;;;;;5055647;28;20180;-84
2023/05/06 01:51:23;;;;;;;1.43;1.33;;;7.90;99.90;;;;;;5056073;28;20267;-83
2023/05/06 01:53:49;;;;;;;1.20;1.10;;;;;;;;;;5055683;28;20630;-84
2023/05/06 01:56:15;;;;;;;2.03;1.50;;;7.80;99.90;;;;;;5055599;28;20207;-84
2023/05/06 01:58:41;;;;;;;2.47;1.00;;;8.00;99.90;;;;;;5055839;28;20190;-84
2023/05/06 02:01:07;;;;;;;1.83;1.50;;;8.00;99.90;;;;;;5053997;28;20259;-84
2023/05/06 02:03:33;;;;;;;1.87;1.47;;;8.00;99.90;;;;;;5057675;28;20244;-84
2023/05/06 02:05:59;;;;;;;2.30;1.20;;;;;;;;;;5056177;28;20582;-84
2023/05/06 02:08:25;;;;;;;3.13;1.83;;;;;;;;;;5056414;28;20230;-84
2023/05/06 02:10:50;;;;;;;2.20;1.53;;;8.00;99.90;;;;;;5059184;28;20198;-85
2023/05/06 02:13:18;;;;;;;1.67;1.27;;;8.00;99.90;;;;;;5079961;28;20176;-85
2023/05/06 02:15:44;;;;;;;1.23;1.13;;;7.90;99.90;;;;;;5079867;28;20242;-84
2023/05/06 02:18:10;;;;;;;1.40;1.30;;;7.90;99.90;;;;;;5079447;28;20169;-84
2023/05/06 02:20:36;;;;;;;1.73;1.40;;;7.90;99.90;;;;;;5075218;28;20180;-84
2023/05/06 02:23:01;;;;;;;2.53;1.43;;;7.90;99.90;;;;;;5056163;28;20180;-84
2023/05/06 02:25:28;;;;;;;4.77;1.23;;;7.70;99.90;;;;;;5061422;28;20176;-84
2023/05/06 02:27:54;;;;;;;2.03;1.20;;;8.10;99.90;;;;;;5078717;28;20179;-87
2023/05/06 02:30:20;;;;;;;5.60;1.50;;;7.90;99.90;;;;;;5077730;28;20159;-83
2023/05/06 02:32:45;;;;;;;5.87;1.07;;;7.80;99.90;;;;;;5078832;28;20168;-84
2023/05/06 02:35:11;;;;;;;1.77;1.30;;;7.90;99.90;;;;;;5055139;28;20207;-83
2023/05/06 02:37:37;;;;;;;1.57;1.30;;;;;;;;;;5053694;28;20326;-83
2023/05/06 02:40:05;;;;;;;1.30;1.00;;;7.90;99.90;;;;;;5054398;28;20203;-83
2023/05/06 02:42:31;;;;;;;1.57;1.30;;;;;;;;;;5053476;28;20244;-83
2023/05/06 02:44:57;;;;;;;1.60;1.27;;;;;;;;;;5054817;28;20276;-84
2023/05/06 02:47:23;;;;;;;3.10;1.50;;;;;;;;;;5054570;28;20187;-83
2023/05/06 02:49:49;;;;;;;1.37;1.20;;;;;;;;;;5054430;28;20186;-83
2023/05/06 02:52:15;;;;;;;2.30;1.20;;;7.70;99.90;;;;;;5053861;28;20185;-83
2023/05/06 02:54:41;;;;;;;7.27;1.50;;;;;;;;;;5053174;28;20628;-83
2023/05/06 02:57:06;;;;;;;1.83;1.07;;;7.50;99.90;;;;;;5053744;28;20618;-83
2023/05/06 02:59:32;;;;;;;2.33;1.60;;;7.80;99.90;;;;;;5053184;28;20253;-84
2023/05/06 03:01:58;;;;;;;1.20;1.10;;;;;;;;;;5053918;28;20317;-85
2023/05/06 03:04:24;;;;;;;2.00;1.33;;;7.70;99.90;;;;;;5053815;28;20206;-84
2023/05/06 03:06:49;;;;;;;2.20;1.30;;;7.60;99.90;;;;;;5053781;28;20215;-84
2023/05/06 03:09:15;;;;;;;1.70;1.53;;;7.60;99.90;;;;;;5052260;28;20589;-84
2023/05/06 03:11:40;;;;;;;1.53;1.30;;;7.60;99.90;;;;;;5036198;28;20184;-84
2023/05/06 03:14:06;;;;;;;1.13;1.03;;;7.50;99.90;;;;;;5035759;28;20652;-85
2023/05/06 03:16:32;;;;;;;1.70;1.27;;;7.50;99.90;;;;;;5054030;28;20242;-84
2023/05/06 03:18:58;;;;;;;1.83;1.50;;;;;;;;;;5052703;28;20261;-84
2023/05/06 03:21:23;;;;;;;2.57;1.93;;;7.30;99.90;;;;;;5052387;28;20176;-84
2023/05/06 03:23:49;;;;;;;1.20;1.10;;;;;;;;;;5053582;28;20184;-84
2023/05/06 03:26:15;;;;;;;6.77;1.40;;;7.30;99.90;;;;;;5053092;28;20184;-84
2023/05/06 03:28:42;;;;;;;8.20;2.07;;;7.40;99.90;;;;;;5053390;28;20184;-84
2023/05/06 03:31:08;;;;;;;2.63;1.33;;;;;;;;;;5052402;28;20184;-84
2023/05/06 03:33:34;;;;;;;3.00;1.50;;;;;;;;;;5035810;28;20188;-84
2023/05/06 03:36:00;;;;;;;2.47;1.50;;;;;;;;;;5053491;28;20251;-84
2023/05/06 03:38:26;;;;;;;1.33;1.20;;;7.00;99.90;;;;;;5051917;28;20218;-84
2023/05/06 03:40:52;;;;;;;2.37;1.33;;;7.40;99.90;;;;;;5053579;28;20636;-84
2023/05/06 03:43:18;;;;;;;3.83;1.77;;;;;;;;;;5053275;28;20180;-85
2023/05/06 03:45:44;;;;;;;2.10;1.70;;;7.40;99.90;;;;;;5035336;28;20187;-84
2023/05/06 03:48:10;;;;;;;2.33;1.37;;;7.30;99.90;;;;;;5051709;28;20641;-85
2023/05/06 03:50:36;;;;;;;1.70;1.20;;;7.40;99.90;;;;;;5053224;28;20190;-85
2023/05/06 03:53:01;;;;;;;4.23;1.93;;;7.40;99.90;;;;;;5051919;28;20629;-85
2023/05/06 03:55:27;;;;;;;2.40;1.23;;;7.40;99.90;;;;;;5052769;28;20254;-85
2023/05/06 03:57:53;;;;;;;2.77;1.90;;;7.40;99.90;;;;;;5051686;28;20211;-84
2023/05/06 04:00:19;;;;;;;1.67;1.53;;;7.40;99.90;;;;;;5056659;28;20179;-86
2023/05/06 04:02:44;;;;;;;2.43;1.60;;;7.40;99.90;;;;;;5055770;28;20269;-84
2023/05/06 04:05:10;;;;;;;1.73;1.37;;;7.40;99.90;;;;;;5053198;28;20212;-85
2023/05/06 04:07:35;;;;;;;2.97;1.50;;;7.40;99.90;;;;;;5051779;28;20184;-84
2023/05/06 04:10:01;;;;;;;2.07;1.70;;;7.40;99.90;;;;;;5053195;28;20187;-84
2023/05/06 04:12:27;;;;;;;2.83;1.90;;;7.50;99.90;;;;;;5051692;28;20179;-85
2023/05/06 04:14:52;;;;;;;1.67;1.37;;;7.50;99.90;;;;;;5052931;28;20223;-84
2023/05/06 04:17:18;;;;;;;1.40;1.30;;;7.50;99.90;;;;;;5052474;28;20679;-85
2023/05/06 04:19:44;;;;;;;2.80;1.90;;;7.50;99.90;;;;;;5052213;28;20210;-84
2023/05/06 04:22:10;;;;;;;1.67;1.50;;;7.50;99.90;;;;;;5052416;28;20636;-87
2023/05/06 04:24:35;;;;;;;1.83;1.53;;;7.60;99.90;;;;;;5052179;28;20179;-84
2023/05/06 04:27:02;;;;;;;1.63;1.47;;;7.60;99.90;;;;;;5051133;28;20192;-86
2023/05/06 04:29:27;;;;;;;1.83;1.50;;;7.60;99.90;;;;;;5051262;28;20194;-84
2023/05/06 04:31:53;;;;;;;1.53;1.33;;;7.70;99.90;;;;;;5051433;28;20554;-84
2023/05/06 04:34:19;;;;;;;2.67;1.70;;;7.70;99.90;;;;;;5034844;28;20364;-85
2023/05/06 04:36:46;;;;;;;1.97;1.50;;;7.80;99.90;;;;;;5051343;28;20667;-84
2023/05/06 04:39:12;;;;;;;2.33;1.27;;;7.90;99.90;;;;;;5051145;28;20215;-87
2023/05/06 04:41:38;;;;;;;1.33;1.23;;;7.90;99.90;;;;;;5051757;28;20176;-84
2023/05/06 04:44:04;;;;;;;1.40;1.30;;;8.00;99.90;;;;;;5052445;28;20521;-84
2023/05/06 04:46:30;;;;;;;1.80;1.47;;;8.10;99.90;;;;;;5052454;28;20192;-84
2023/05/06 04:48:57;;;;;;;1.53;1.43;;;8.10;99.90;;;;;;5051558;28;20579;-85
2023/05/06 04:51:22;;;;;;;1.53;1.13;;;8.10;99.90;;;;;;5052051;28;20226;-85
2023/05/06 04:53:48;;;;;;;1.37;1.27;;;8.20;99.90;;;;;;5052110;28;20274;-84
2023/05/06 04:56:14;;;;;;;3.47;1.00;;;8.30;99.90;;;;;;5032920;28;20215;-86
2023/05/06 04:58:39;;;;;;;1.20;1.10;;;8.30;99.90;;;;;;5048321;28;20192;-85
2023/05/06 05:01:07;;;;;;;4.63;1.50;;;8.40;99.90;;;;;;5041745;28;20200;-85
2023/05/06 05:03:33;;;;;;;1.77;1.50;;;8.50;99.90;;;;;;5051447;28;20185;-86
2023/05/06 05:05:59;;;;;;;2.03;1.30;;;8.50;99.90;;;;;;5051069;28;20384;-84
2023/05/06 05:08:25;;;;;;;1.90;1.60;;;8.60;99.90;;;;;;5036283;28;20246;-84
2023/05/06 05:10:51;;;;;;;2.28;1.60;;;8.60;99.90;;;;;;5040300;28;20176;-84
2023/05/06 05:13:18;;;;;;;4.77;1.97;;;8.70;99.90;;;;;;5034375;28;20213;-84
2023/05/06 05:15:44;;;;;;;1.83;1.45;;;8.70;99.90;;;;;;5033101;28;20248;-85
2023/05/06 05:18:10;;;;;;;1.20;1.10;;;8.80;99.90;;;;;;5047597;28;20188;-83
2023/05/06 05:20:36;;;;;;;1.60;1.27;;;8.90;99.90;;;;;;5025776;28;20202;-84
2023/05/06 05:23:01;;;;;;;2.13;1.15;;;9.40;99.90;;;;;;5054592;28;20180;-84
2023/05/06 05:25:27;;;;;;;2.03;1.27;;;9.10;99.90;;;;;;5054032;28;20242;-84
2023/05/06 05:27:53;;;;;;;2.50;1.45;;;9.10;99.90;;;;;;5036643;28;20278;-84
2023/05/06 05:30:18;;;;;;;1.63;1.27;;;9.10;99.90;;;;;;5052797;28;20267;-85
2023/05/06 05:32:44;;;;;;;1.65;1.48;;;9.10;99.90;;;;;;5053483;28;20192;-85
2023/05/06 05:35:10;;;;;;;1.50;1.40;;;9.10;99.90;;;;;;5035438;28;20196;-84
2023/05/06 05:37:36;;;;;;;1.33;1.23;;;9.00;99.90;;;;;;5041349;28;20199;-82
2023/05/06 05:40:02;;;;;;;1.03;0.90;;;9.00;99.90;;;;;;5051446;28;20202;-83
2023/05/06 05:42:32;;;;;;;2.17;1.63;;;9.10;99.90;;;;;;5052988;28;20520;-83
2023/05/06 05:44:58;;;;;;;3.03;1.75;;;9.10;99.90;;;;;;5053574;28;20176;-84
2023/05/06 05:47:24;;;;;;;1.63;1.15;;;9.10;99.90;;;;;;5052673;28;20694;-83
2023/05/06 05:49:50;;;;;;;2.03;1.40;;;9.10;99.90;;;;;;5040466;28;20195;-85
2023/05/06 05:52:16;;;;;;;5.53;1.45;;;9.20;99.90;;;;;;5044146;28;20180;-85
2023/05/06 05:54:42;;;;;;;1.02;1.00;;;9.20;99.90;;;;;;5052377;28;20969;-84
2023/05/06 05:57:07;;;;;;;2.45;1.30;;;9.30;99.90;;;;;;5052942;28;20199;-84
2023/05/06 05:59:33;;;;;;;1.30;1.20;;;9.60;99.90;;;;;;5052921;28;20636;-84
2023/05/06 06:01:59;;;;;;;1.13;1.10;;;9.40;99.90;;;;;;5053150;28;20180;-84
2023/05/06 06:04:25;;;;;;;1.47;1.33;;;;;;;;;;5049584;28;20185;-87
2023/05/06 06:06:50;;;;;;;2.38;1.75;;;9.50;99.90;;;;;;5043793;28;20202;-82
2023/05/06 06:09:16;;;;;;;1.33;1.23;;;;;;;;;;5050576;28;20180;-82
2023/05/06 06:11:42;;;;;;;2.50;1.08;;;9.30;99.90;;;;;;5052705;28;20644;-82
2023/05/06 06:14:10;;;;;;;8.25;1.75;;;9.80;99.90;;;;;;5053347;28;20179;-82
2023/05/06 06:16:35;;;;;;;1.30;1.20;;;9.30;99.90;;;;;;5051597;28;20275;-82
2023/05/06 06:19:01;;;;;;;1.30;1.10;;;9.60;99.90;;;;;;5034534;28;20289;-82
2023/05/06 06:21:27;;;;;;;1.08;1.08;;;9.70;99.90;;;;;;5050766;28;20180;-83
2023/05/06 06:23:52;;;;;;;2.67;1.25;;;9.80;99.90;;;;;;5052296;28;20176;-83
2023/05/06 06:26:18;;;;;;;1.52;1.05;;;9.90;99.90;;;;;;5052132;28;20183;-83
2023/05/06 06:28:43;;;;;;;1.98;1.50;;;9.90;99.90;;;;;;5050577;28;20541;-83
2023/05/06 06:31:10;;;;;;;1.48;1.38;;;9.90;99.90;;;;;;5053057;28;20184;-82
2023/05/06 06:33:35;;;;;;;1.17;1.08;;;10.00;99.90;;;;;;5052508;28;20184;-82
2023/05/06 06:36:01;;;;;;;1.05;0.90;;;10.00;99.90;;;;;;5069314;28;20273;-81
2023/05/06 06:38:27;;;;;;;2.83;1.50;;;10.10;99.40;;;;;;5053870;28;20191;-81
2023/05/06 06:40:53;;;;;;;1.42;1.20;;;10.30;99.90;;;;;;5053276;28;20190;-82
2023/05/06 06:43:18;;;;;;;2.10;1.40;;;10.40;98.30;;;;;;5054032;28;20267;-81
2023/05/06 06:45:47;;;;;;;1.23;1.13;;;10.50;98.00;;;;;;5053843;28;20184;-82
2023/05/06 06:48:13;;;;;;;3.90;0.95;;;;;;;;;;5053826;28;20180;-83
2023/05/06 06:50:39;;;;;;;1.65;1.25;;;10.60;96.10;;;;;;5053947;28;20199;-83
2023/05/06 06:53:04;;;;;;;1.63;1.38;;;10.70;96.30;;;;;;5053575;28;20671;-85
2023/05/06 06:55:30;;;;;;;1.45;1.10;;;10.80;95.10;;;;;;5053701;28;20243;-85
2023/05/06 06:57:56;;;;;;;1.15;1.05;;;10.90;95.20;;;;;;5035820;28;20294;-85
2023/05/06 07:00:22;;;;;;;1.75;1.45;;;11.70;98.90;;;;;;5047082;28;20172;-84
2023/05/06 07:02:48;;;;;;;1.42;1.33;;;11.30;94.70;;;;;;5052494;28;20193;-85
2023/05/06 07:05:14;;;;;;;1.65;1.55;;;11.40;92.50;;;;;;5051659;28;20188;-84
2023/05/06 07:07:39;;;;;;;1.63;1.30;;;11.40;91.90;;;;;;5047143;28;20270;-85
2023/05/06 07:10:06;;;;;;;1.83;1.40;;;11.50;91.70;;;;;;5051622;28;20536;-86
2023/05/06 07:12:31;;;;;;;1.42;1.00;;;11.70;92.00;;;;;;5052820;28;20191;-84
2023/05/06 07:14:57;;;;;;;3.67;1.45;;;11.80;91.00;;;;;;5051141;28;20227;-85
2023/05/06 07:17:22;;;;;;;1.35;1.17;;;11.90;91.20;;;;;;5051664;28;20688;-84
2023/05/06 07:19:48;;;;;;;3.53;1.63;;;11.90;90.10;;;;;;5052402;28;20192;-85
2023/05/06 07:22:14;;;;;;;2.28;1.45;;;11.80;90.40;;;;;;5029300;28;20180;-85
2023/05/06 07:24:40;;;;;;;2.80;1.60;;;11.80;90.50;;;;;;5048396;28;20188;-86
2023/05/06 07:27:05;;;;;;;2.63;1.10;;;12.10;94.50;;;;;;5052838;28;20182;-85
2023/05/06 07:29:33;;;;;;;4.47;1.50;;;;;;;;;;5051305;28;20212;-85
2023/05/06 07:31:59;;;;;;;8.93;1.42;;;11.40;94.40;;;;;;5051524;28;20184;-85
2023/05/06 07:34:25;;;;;;;1.88;1.27;;;;;;;;;;5051619;28;20198;-85
2023/05/06 07:36:51;;;;;;;2.38;1.40;;;12.00;93.00;;;;;;5052560;28;20207;-85
2023/05/06 07:39:17;;;;;;;1.40;1.30;;;;;;;;;;5052677;28;20522;-85
2023/05/06 07:41:43;;;;;;;0.88;0.80;;;;;;;;;;5052548;28;20214;-86
2023/05/06 07:44:09;;;;;;;1.80;0.95;;;;;;;;;;5052346;28;20180;-86
2023/05/06 07:46:34;;;;;;;2.20;1.27;;;12.40;95.60;;;;;;5052974;28;20183;-84
2023/05/06 07:49:00;;;;;;;1.80;1.20;;;12.90;97.60;;;;;;5052332;28;20188;-84
2023/05/06 07:51:27;;;;;;;2.13;1.33;;;12.90;84.50;;;;;;5053974;28;20178;-85
2023/05/06 07:53:53;;;;;;;3.35;1.27;;;13.20;94.80;;;;;;5052666;28;20233;-85
2023/05/06 07:56:19;;;;;;;1.48;1.23;;;;;;;;;;5054041;28;20246;-85
2023/05/06 07:58:45;;;;;;;3.08;1.38;;;13.50;93.00;;;;;;5035583;28;20184;-84
2023/05/06 08:01:10;;;;;;;1.80;1.15;;;13.20;79.90;;;;;;5055268;28;20183;-84
2023/05/06 08:03:36;;;;;;;2.17;1.00;;;13.20;80.30;;;;;;5055272;28;20180;-84
2023/05/06 08:06:02;;;;;;;2.25;1.52;;;13.20;78.70;;;;;;5055109;28;20176;-85
2023/05/06 08:08:28;;;;;;;1.05;0.95;;;13.10;79.10;;;;;;5056854;28;20204;-85
2023/05/06 08:10:55;;;;;;;1.65;0.82;;;13.10;90.40;;;;;;5077285;28;20160;-86
2023/05/06 08:13:20;;;;;;;2.35;1.33;;;13.90;91.10;;;;;;5077826;28;20188;-85
2023/05/06 08:15:46;;;;;;;14.25;1.77;;;13.50;80.10;;;;;;5077572;28;20246;-86
2023/05/06 08:18:12;;;;;;;3.95;1.52;;;13.60;80.00;;;;;;5074278;28;20253;-86
2023/05/06 08:20:37;;;;;;;1.50;1.30;;;13.80;91.50;;;;;;5055742;28;20176;-85
2023/05/06 08:23:03;;;;;;;5.65;1.73;;;;;;;;;;5059197;28;20566;-85
2023/05/06 08:25:29;;;;;;;1.42;1.15;;;13.60;90.00;;;;;;5077617;28;20172;-86
2023/05/06 08:27:55;;;;;;;4.07;1.52;;;13.60;86.80;;;;;;5077204;28;20194;-86
2023/05/06 08:30:21;;;;;;;2.38;1.33;;;13.50;77.90;;;;;;5075042;28;20610;-86
2023/05/06 08:32:46;;;;;;;1.27;1.10;;;13.50;78.10;;;;;;5054392;28;20225;-87
2023/05/06 08:35:12;;;;;;;2.05;1.25;;;13.60;77.20;;;;;;5039389;28;20632;-85
2023/05/06 08:37:39;;;;;;;2.63;1.20;;;13.70;78.10;;;;;;5039265;28;20543;-85
2023/05/06 08:40:16;;;;;;;2.05;1.13;;;14.00;77.30;;;;;;5055015;28;20180;-85
2023/05/06 08:42:44;;;;;;;1.17;1.08;;;14.10;76.80;;;;;;5056792;28;20167;-85
2023/05/06 08:45:10;;;;;;;1.77;1.27;;;14.20;75.20;;;;;;5057037;28;20179;-85
2023/05/06 08:47:36;;;;;;;3.95;1.33;;;14.40;74.70;;;;;;5057006;28;20283;-85
2023/05/06 08:50:02;;;;;;;1.13;1.02;;;14.50;72.70;;;;;;5056157;28;20212;-85
2023/05/06 08:52:28;;;;;;;2.38;1.20;;;14.40;73.00;;;;;;5038157;28;20180;-85
2023/05/06 08:55:00;;;;;;;5.10;1.30;;;14.40;72.80;;;;;;5054620;28;20203;-85
2023/05/06 08:57:28;;;;;;;2.17;1.60;;;13.70;86.80;;;;;;5054778;28;20203;-85
2023/05/06 08:59:55;;;;;;;1.25;1.15;;;;;;;;;;5054525;28;20721;-84
2023/05/06 09:02:21;;;;;;;1.50;1.38;;;14.10;89.30;;;;;;5054459;28;20215;-85
2023/05/06 09:04:48;;;;;;;1.20;1.10;;;14.10;92.00;;;;;;5054322;28;20539;-85
2023/05/06 09:07:13;;;;;;;4.05;1.55;;;14.20;71.60;;;;;;5055175;28;20681;-85
2023/05/06 09:09:40;;;;;;;5.80;1.75;;;14.00;71.90;;;;;;5055332;28;20267;-85
2023/05/06 09:12:14;;;;;;;2.15;1.52;;;14.10;73.00;;;;;;5055430;28;20172;-86
2023/05/06 09:14:41;;;;;;;2.45;1.60;;;14.10;71.70;;;;;;5054140;28;20179;-86
2023/05/06 09:17:25;;;;;;;1.65;1.30;;;13.80;85.80;;;;;;5054946;28;20202;-86
2023/05/06 09:19:52;;;;;;;1.40;1.30;;;13.90;90.30;;;;;;5055548;28;20255;-85
2023/05/06 09:22:21;;;;;;;2.17;1.10;;;14.50;87.20;;;;;;5055301;28;20172;-85
2023/05/06 09:24:55;;;;;;;2.25;1.35;;;14.20;84.60;;;;;;5054095;28;20215;-85
2023/05/06 09:27:26;;;;;;;3.90;1.45;;;14.30;71.80;;;;;;5054187;28;20230;-85
2023/05/06 09:30:08;;;;;;;2.38;1.67;;;14.40;71.30;;;;;;5054034;28;20564;-86
2023/05/06 09:32:34;;;;;;;1.75;1.23;;;14.50;73.10;;;;;;5055554;28;20164;-86
2023/05/06 09:35:00;;;;;;;5.85;1.00;;;14.40;69.70;;;;;;5053571;28;20194;-85
2023/05/06 09:37:27;;;;;;;4.35;1.25;;;14.30;69.10;;;;;;5053682;28;20301;-86
2023/05/06 09:39:54;;;;;;;5.00;1.38;;;14.20;70.90;;;;;;5055121;28;20180;-87
2023/05/06 09:42:22;;;;;;;1.80;1.30;;;14.20;69.60;;;;;;5054843;28;20211;-86
2023/05/06 09:44:50;;;;;;;1.95;1.30;;;14.20;68.60;;;;;;5052866;28;20222;-87
2023/05/06 09:47:16;;;;;;;1.55;1.23;;;14.20;68.40;;;;;;5054585;28;20275;-87
2023/05/06 09:49:42;;;;;;;2.40;1.70;;;14.20;68.50;;;;;;5055528;28;20176;-86
2023/05/06 09:52:07;;;;;;;2.67;1.38;;;14.20;69.00;;;;;;5036811;28;20195;-86
2023/05/06 09:54:34;;;;;;;3.03;1.33;;;14.10;66.90;;;;;;5037695;28;20184;-86
2023/05/06 09:57:01;;;;;;;2.28;1.50;;;14.20;69.60;;;;;;5037051;28;20212;-85
2023/05/06 09:59:28;;;;;;;1.88;1.20;;;14.00;79.70;;;;;;5037006;28;20270;-83
2023/05/06 10:01:54;;;;;;;1.95;1.60;;;14.00;91.00;;;;;;5054985;28;20191;-86
2023/05/06 10:04:24;;;;;;;1.40;1.30;;;14.40;91.10;;;;;;5053029;28;20180;-85
2023/05/06 10:06:53;;;;;;;1.70;1.15;;;13.80;80.00;;;;;;5054448;28;20180;-86
2023/05/06 10:09:23;;;;;;;1.40;1.17;;;13.90;91.30;;;;;;5053550;28;20180;-85
2023/05/06 10:11:50;;;;;;;2.05;1.67;;;13.80;80.50;;;;;;5054638;28;20179;-85
2023/05/06 10:14:17;;;;;;;3.03;1.40;;;13.50;85.80;;;;;;5053087;28;20194;-85
2023/05/06 10:16:47;;;;;;;3.40;1.55;;;13.70;68.80;;;;;;5054692;28;20692;-86
2023/05/06 10:19:17;;;;;;;4.50;1.52;;;13.70;68.90;;;;;;5052991;28;20667;-84
2023/05/06 10:21:47;;;;;;;4.10;1.67;;;13.70;69.90;;;;;;5054734;28;20178;-85
2023/05/06 10:24:18;;;;;;;3.17;1.10;;;13.70;70.00;;;;;;5054091;28;20204;-85
2023/05/06 10:26:45;;;;;;;2.88;1.77;;;13.70;69.80;;;;;;5054129;28;20176;-85
2023/05/06 10:29:12;;;;;;;1.40;1.30;;;13.70;70.20;;;;;;5052685;28;20645;-86
2023/05/06 10:31:47;;;;;;;3.17;1.63;;;14.00;71.50;;;;;;5054080;28;20180;-86
2023/05/06 10:34:13;;;;;;;2.75;1.50;;;;;;;;;;5053786;28;20157;-86
2023/05/06 10:36:41;;;;;;;1.77;1.27;;;13.60;82.70;;;;;;5036112;28;20267;-87
2023/05/06 10:39:09;;;;;;;3.78;1.63;;;13.70;70.00;;;;;;5053636;28;20172;-87
2023/05/06 10:41:36;;;;;;;4.55;1.42;;;13.70;70.30;;;;;;5036399;28;20188;-86
2023/05/06 10:44:01;;;;;;;2.65;1.60;;;13.60;81.80;;;;;;5052510;28;20180;-86
2023/05/06 10:46:28;;;;;;;1.63;1.33;;;13.40;70.20;;;;;;5053707;28;20237;-86
2023/05/06 10:49:12;;;;;;;3.13;1.80;;;13.30;70.50;;;;;;5052592;28;20714;-87
2023/05/06 10:51:39;;;;;;;3.78;1.38;;;13.20;70.20;;;;;;5053880;28;20213;-84
2023/05/06 10:54:16;;;;;;;3.38;1.38;;;13.20;71.40;;;;;;5057850;28;20663;-86
2023/05/06 10:56:48;;;;;;;3.92;1.98;;;13.10;82.30;;;;;;5052458;28;20218;-87
2023/05/06 10:59:19;;;;;;;2.20;1.48;;;12.60;86.10;;;;;;5053476;28;20259;-88
2023/05/06 11:01:56;;;;;;;5.57;2.00;;;13.00;72.90;;;;;;5053553;28;20168;-88
2023/05/06 11:04:22;;;;;;;1.60;1.38;;;13.10;73.00;;;;;;5053001;28;20188;-87
2023/05/06 11:06:50;;;;;;;1.60;1.50;;;13.10;86.60;;;;;;5053429;28;20226;-87
2023/05/06 11:09:21;;;;;;;2.00;1.50;;;13.00;72.90;;;;;;5051770;28;20176;-86
2023/05/06 11:12:04;;;;;;;5.13;1.73;;;13.10;73.20;;;;;;5052173;28;20176;-87
2023/05/06 11:14:37;;;;;;;4.90;2.05;;;12.90;82.30;;;;;;5052745;28;20160;-87
2023/05/06 11:17:04;;;;;;;3.92;1.70;;;13.10;71.60;;;;;;5053199;28;20200;-87
2023/05/06 11:19:36;;;;;;;5.88;1.45;;;13.00;84.80;;;;;;5051659;28;20214;-87
2023/05/06 11:22:04;;;;;;;1.63;1.23;;;13.30;85.20;;;;;;5052061;28;20179;-87
2023/05/06 11:24:41;;;;;;;1.83;1.33;;;13.20;73.00;;;;;;5051556;28;20241;-85
2023/05/06 11:27:09;;;;;;;4.00;1.75;;;13.20;73.00;;;;;;5053513;28;20266;-85
2023/05/06 11:29:35;;;;;;;4.32;1.17;;;13.20;73.60;;;;;;5052493;28;20180;-89
2023/05/06 11:32:02;;;;;;;3.47;1.30;;;13.20;72.50;;;;;;5052550;28;20632;-88
2023/05/06 11:34:31;;;;;;;1.45;1.35;;;13.30;73.40;;;;;;5051398;28;20194;-87
2023/05/06 11:37:03;;;;;;;3.95;1.83;;;13.30;73.70;;;;;;5051328;28;20212;-85
2023/05/06 11:39:31;;;;;;;1.63;1.27;;;13.30;73.00;;;;;;5052485;28;20198;-85
2023/05/06 11:41:59;;;;;;;1.52;1.23;;;13.40;72.70;;;;;;5051452;28;20168;-83
2023/05/06 11:44:26;;;;;;;4.55;1.77;;;13.40;72.40;;;;;;5051286;28;20711;-85
2023/05/06 11:46:56;;;;;;;2.08;1.15;;;13.40;71.00;;;;;;5051520;28;20172;-86
2023/05/06 11:49:21;;;;;;;1.75;1.63;;;13.00;83.20;;;;;;5051427;28;20271;-86
2023/05/06 11:51:48;;;;;;;3.55;1.48;;;13.30;83.80;;;;;;5018913;28;20299;-86
2023/05/06 11:54:17;;;;;;;1.50;1.38;;;13.20;85.00;;;;;;5052263;28;20184;-87
2023/05/06 11:56:47;;;;;;;2.10;1.50;;;13.20;72.70;;;;;;5053925;28;20199;-86
2023/05/06 11:59:13;;;;;;;6.55;1.50;;;13.20;72.50;;;;;;5053607;28;20175;-86
2023/05/06 12:01:42;;;;;;;2.92;1.38;;;12.80;83.50;;;;;;5052850;28;20658;-86
2023/05/06 12:04:10;;;;;;;3.75;1.80;;;13.20;72.70;;;;;;5034645;28;20184;-87
2023/05/06 12:06:36;;;;;;;8.23;2.17;;;13.20;72.10;;;;;;5050974;28;20182;-86
2023/05/06 12:09:05;;;;;;;2.53;1.15;;;13.10;82.10;;;;;;5052669;28;20172;-87
2023/05/06 12:11:32;;;;;;;1.67;1.30;;;13.30;73.60;;;;;;5052413;28;20558;-87
2023/05/06 12:13:58;;;;;;;4.03;1.65;;;13.30;71.80;;;;;;5052786;28;20258;-86
2023/05/06 12:16:25;;;;;;;2.45;1.48;;;13.30;71.20;;;;;;5050521;28;20773;-86
2023/05/06 12:18:53;;;;;;;1.75;1.25;;;13.40;82.20;;;;;;5051516;28;20245;-85
2023/05/06 12:21:23;;;;;;;2.08;1.50;;;13.30;71.80;;;;;;5050824;28;20180;-86
2023/05/06 12:23:53;;;;;;;2.13;1.50;;;13.30;71.50;;;;;;5051089;28;20203;-88
2023/05/06 12:26:20;;;;;;;1.90;1.33;;;13.50;84.00;;;;;;5052341;28;20262;-84
2023/05/06 12:29:03;;;;;;;4.10;1.63;;;13.20;83.80;;;;;;5050957;28;20222;-86
2023/05/06 12:31:28;;;;;;;3.22;1.98;;;13.40;83.90;;;;;;5050807;28;20168;-85
2023/05/06 12:37:28;;;;;;;2.90;1.65;;;13.20;83.60;;;;;;5256420;22;20271;-84
2023/05/06 12:39:54;;;;;;;1.90;1.30;;;13.50;83.50;;;;;;5012976;28;20234;-85
2023/05/06 12:42:20;;;;;;;2.75;1.73;;;13.30;71.90;;;;;;5013212;28;20264;-85
2023/05/06 12:44:46;;;;;;;2.65;1.55;;;13.30;71.70;;;;;;5013011;28;20185;-86
2023/05/06 12:47:23;;;;;;;1.42;1.20;;;13.20;84.20;;;;;;5011354;28;20199;-85
2023/05/06 12:49:57;;;;;;;4.53;1.52;;;13.40;73.60;;;;;;5012945;28;20184;-85
2023/05/06 12:52:28;;;;;;;6.03;1.42;;;13.40;83.90;;;;;;5012337;28;20181;-84
2023/05/06 12:54:54;;;;;;;9.85;1.30;;;13.20;84.50;;;;;;5044845;28;20177;-83
2023/05/06 12:57:20;;;;;;;1.95;1.20;;;13.20;84.50;;;;;;5012199;28;20368;-84
2023/05/06 12:59:47;;;;;;;2.08;1.30;;;13.30;71.40;;;;;;5011704;28;20272;-85
2023/05/06 13:02:13;;;;;;;5.60;1.85;;;13.30;83.60;;;;;;5013229;28;20201;-85
2023/05/06 13:04:39;;;;;;;2.65;1.50;;;13.20;71.90;;;;;;5012191;28;20260;-84
2023/05/06 13:07:05;;;;;;;2.65;1.40;;;13.50;87.00;;;;;;5012944;28;20240;-85